sensor_id;sensor_type;location;lat;lon;timestamp;P1;durP1;ratioP1;P2;durP2;ratioP2
59504;SDS011;45321;53.200;5.814;2023-06-22T00:00:56;32.90;;;26.08;;
59504;SDS011;45321;53.200;5.814;2023-06-22T00:03:23;28.27;;;25.20;;
59504;SDS011;45321;53.200;5.814;2023-06-22T00:05:51;27.63;;;24.83;;
59504;SDS011;45321;53.200;5.814;2023-06-22T00:08:18;31.60;;;27.02;;
59504;SDS011;45321;53.200;5.814;2023-06-22T00:10:44;29.80;;;26.60;;
59504;SDS011;45321;53.200;5.814;2023-06-22T00:13:10;31.55;;;26.92;;
59504;SDS011;45321;53.200;5.814;2023-06-22T00:15:38;33.92;;;27.20;;
59504;SDS011;45321;53.200;5.814;2023-06-22T00:18:06;30.08;;;26.73;;
59504;SDS011;45321;53.200;5.814;2023-06-22T00:20:32;32.63;;;27.80;;
59504;SDS011;45321;53.200;5.814;2023-06-22T00:22:59;31.50;;;27.75;;
59504;SDS011;45321;53.200;5.814;2023-06-22T00:25:25;32.33;;;28.38;;
59504;SDS011;45321;53.200;5.814;2023-06-22T00:27:51;31.50;;;28.08;;
59504;SDS011;45321;53.200;5.814;2023-06-22T00:30:17;30.05;;;26.90;;
59504;SDS011;45321;53.200;5.814;2023-06-22T00:32:43;32.08;;;28.67;;
59504;SDS011;45321;53.200;5.814;2023-06-22T00:35:11;31.15;;;26.83;;
59504;SDS011;45321;53.200;5.814;2023-06-22T00:37:38;33.58;;;28.20;;
59504;SDS011;45321;53.200;5.814;2023-06-22T00:40:08;32.58;;;27.85;;
59504;SDS011;45321;53.200;5.814;2023-06-22T00:42:39;30.88;;;27.45;;
59504;SDS011;45321;53.200;5.814;2023-06-22T00:45:06;33.80;;;28.33;;
59504;SDS011;45321;53.200;5.814;2023-06-22T00:47:34;31.05;;;27.13;;
59504;SDS011;45321;53.200;5.814;2023-06-22T00:50:01;31.17;;;27.13;;
59504;SDS011;45321;53.200;5.814;2023-06-22T00:52:28;31.80;;;27.45;;
59504;SDS011;45321;53.200;5.814;2023-06-22T00:54:56;30.25;;;26.42;;
59504;SDS011;45321;53.200;5.814;2023-06-22T00:57:24;32.40;;;26.52;;
59504;SDS011;45321;53.200;5.814;2023-06-22T00:59:53;27.27;;;24.33;;
59504;SDS011;45321;53.200;5.814;2023-06-22T01:02:19;26.90;;;22.58;;
59504;SDS011;45321;53.200;5.814;2023-06-22T01:04:45;21.17;;;18.95;;
59504;SDS011;45321;53.200;5.814;2023-06-22T01:07:25;20.83;;;18.65;;
59504;SDS011;45321;53.200;5.814;2023-06-22T01:10:08;19.30;;;16.98;;
59504;SDS011;45321;53.200;5.814;2023-06-22T01:13:00;18.67;;;16.77;;
59504;SDS011;45321;53.200;5.814;2023-06-22T01:18:28;17.05;;;15.45;;
59504;SDS011;45321;53.200;5.814;2023-06-22T01:20:56;16.15;;;14.75;;
59504;SDS011;45321;53.200;5.814;2023-06-22T01:31:08;16.77;;;15.27;;
59504;SDS011;45321;53.200;5.814;2023-06-22T01:33:37;17.63;;;15.82;;
59504;SDS011;45321;53.200;5.814;2023-06-22T01:36:06;17.10;;;15.50;;
59504;SDS011;45321;53.200;5.814;2023-06-22T01:38:33;17.55;;;15.93;;
59504;SDS011;45321;53.200;5.814;2023-06-22T01:40:59;20.08;;;18.10;;
59504;SDS011;45321;53.200;5.814;2023-06-22T01:43:26;17.77;;;16.08;;
59504;SDS011;45321;53.200;5.814;2023-06-22T01:45:54;18.27;;;16.48;;
59504;SDS011;45321;53.200;5.814;2023-06-22T01:48:21;18.63;;;16.63;;
59504;SDS011;45321;53.200;5.814;2023-06-22T01:50:48;19.42;;;17.40;;
59504;SDS011;45321;53.200;5.814;2023-06-22T01:53:14;21.80;;;18.27;;
59504;SDS011;45321;53.200;5.814;2023-06-22T01:55:40;21.67;;;19.13;;
59504;SDS011;45321;53.200;5.814;2023-06-22T01:58:05;20.77;;;18.40;;
59504;SDS011;45321;53.200;5.814;2023-06-22T02:00:32;21.95;;;19.67;;
59504;SDS011;45321;53.200;5.814;2023-06-22T02:03:11;21.05;;;18.85;;
59504;SDS011;45321;53.200;5.814;2023-06-22T02:05:47;19.63;;;17.65;;
59504;SDS011;45321;53.200;5.814;2023-06-22T02:08:25;20.85;;;18.60;;
59504;SDS011;45321;53.200;5.814;2023-06-22T02:10:57;20.75;;;18.75;;
59504;SDS011;45321;53.200;5.814;2023-06-22T02:13:24;22.77;;;19.50;;
59504;SDS011;45321;53.200;5.814;2023-06-22T02:15:50;22.70;;;20.40;;
59504;SDS011;45321;53.200;5.814;2023-06-22T02:18:16;21.95;;;19.73;;
59504;SDS011;45321;53.200;5.814;2023-06-22T02:20:42;22.98;;;20.15;;
59504;SDS011;45321;53.200;5.814;2023-06-22T02:23:08;23.77;;;21.38;;
59504;SDS011;45321;53.200;5.814;2023-06-22T02:25:34;24.23;;;21.38;;
59504;SDS011;45321;53.200;5.814;2023-06-22T02:28:00;24.27;;;21.73;;
59504;SDS011;45321;53.200;5.814;2023-06-22T02:30:27;24.45;;;21.88;;
59504;SDS011;45321;53.200;5.814;2023-06-22T02:32:52;24.33;;;21.85;;
59504;SDS011;45321;53.200;5.814;2023-06-22T02:35:24;24.90;;;22.33;;
59504;SDS011;45321;53.200;5.814;2023-06-22T02:37:59;23.10;;;20.77;;
59504;SDS011;45321;53.200;5.814;2023-06-22T02:40:26;21.95;;;19.92;;
59504;SDS011;45321;53.200;5.814;2023-06-22T02:42:53;22.27;;;20.33;;
59504;SDS011;45321;53.200;5.814;2023-06-22T02:45:18;21.85;;;19.80;;
59504;SDS011;45321;53.200;5.814;2023-06-22T02:47:44;21.65;;;19.75;;
59504;SDS011;45321;53.200;5.814;2023-06-22T02:50:10;21.27;;;19.27;;
59504;SDS011;45321;53.200;5.814;2023-06-22T02:52:36;21.17;;;19.35;;
59504;SDS011;45321;53.200;5.814;2023-06-22T02:55:02;23.55;;;21.25;;
59504;SDS011;45321;53.200;5.814;2023-06-22T02:57:28;22.77;;;20.67;;
59504;SDS011;45321;53.200;5.814;2023-06-22T02:59:54;20.60;;;18.80;;
59504;SDS011;45321;53.200;5.814;2023-06-22T03:02:20;20.92;;;19.02;;
59504;SDS011;45321;53.200;5.814;2023-06-22T03:04:46;19.48;;;17.80;;
59504;SDS011;45321;53.200;5.814;2023-06-22T03:07:14;19.17;;;17.48;;
59504;SDS011;45321;53.200;5.814;2023-06-22T03:09:40;20.60;;;18.60;;
59504;SDS011;45321;53.200;5.814;2023-06-22T03:12:07;19.63;;;17.92;;
59504;SDS011;45321;53.200;5.814;2023-06-22T03:14:33;19.27;;;17.48;;
59504;SDS011;45321;53.200;5.814;2023-06-22T03:16:59;18.38;;;16.70;;
59504;SDS011;45321;53.200;5.814;2023-06-22T03:19:28;18.25;;;16.75;;
59504;SDS011;45321;53.200;5.814;2023-06-22T03:21:56;17.83;;;16.33;;
59504;SDS011;45321;53.200;5.814;2023-06-22T03:24:25;17.50;;;16.10;;
59504;SDS011;45321;53.200;5.814;2023-06-22T03:26:53;18.48;;;16.95;;
59504;SDS011;45321;53.200;5.814;2023-06-22T03:29:20;18.95;;;17.35;;
59504;SDS011;45321;53.200;5.814;2023-06-22T03:31:45;18.70;;;17.08;;
59504;SDS011;45321;53.200;5.814;2023-06-22T03:34:11;18.23;;;16.80;;
59504;SDS011;45321;53.200;5.814;2023-06-22T03:36:37;19.05;;;17.50;;
59504;SDS011;45321;53.200;5.814;2023-06-22T03:39:03;18.52;;;16.92;;
59504;SDS011;45321;53.200;5.814;2023-06-22T03:41:28;18.60;;;17.02;;
59504;SDS011;45321;53.200;5.814;2023-06-22T03:43:54;18.33;;;16.65;;
59504;SDS011;45321;53.200;5.814;2023-06-22T03:46:20;18.20;;;16.70;;
59504;SDS011;45321;53.200;5.814;2023-06-22T03:48:45;18.02;;;16.63;;
59504;SDS011;45321;53.200;5.814;2023-06-22T03:51:11;17.35;;;15.95;;
59504;SDS011;45321;53.200;5.814;2023-06-22T03:53:37;18.48;;;16.98;;
59504;SDS011;45321;53.200;5.814;2023-06-22T03:56:03;16.67;;;15.30;;
59504;SDS011;45321;53.200;5.814;2023-06-22T03:58:29;16.90;;;15.50;;
59504;SDS011;45321;53.200;5.814;2023-06-22T04:00:57;16.65;;;15.38;;
59504;SDS011;45321;53.200;5.814;2023-06-22T04:03:25;17.30;;;15.90;;
59504;SDS011;45321;53.200;5.814;2023-06-22T04:05:50;16.85;;;15.55;;
59504;SDS011;45321;53.200;5.814;2023-06-22T04:08:16;16.25;;;15.05;;
59504;SDS011;45321;53.200;5.814;2023-06-22T04:10:43;15.70;;;14.40;;
59504;SDS011;45321;53.200;5.814;2023-06-22T04:13:08;15.82;;;14.60;;
59504;SDS011;45321;53.200;5.814;2023-06-22T04:15:34;15.52;;;14.32;;
59504;SDS011;45321;53.200;5.814;2023-06-22T04:18:00;15.38;;;14.10;;
59504;SDS011;45321;53.200;5.814;2023-06-22T04:20:26;16.13;;;14.82;;
59504;SDS011;45321;53.200;5.814;2023-06-22T04:22:52;16.08;;;14.50;;
59504;SDS011;45321;53.200;5.814;2023-06-22T04:25:19;15.55;;;14.25;;
59504;SDS011;45321;53.200;5.814;2023-06-22T04:27:45;14.20;;;13.20;;
59504;SDS011;45321;53.200;5.814;2023-06-22T04:30:11;14.90;;;13.80;;
59504;SDS011;45321;53.200;5.814;2023-06-22T04:32:37;14.68;;;13.57;;
59504;SDS011;45321;53.200;5.814;2023-06-22T04:35:03;14.85;;;13.80;;
59504;SDS011;45321;53.200;5.814;2023-06-22T04:37:30;15.48;;;14.18;;
59504;SDS011;45321;53.200;5.814;2023-06-22T04:39:56;18.77;;;16.98;;
59504;SDS011;45321;53.200;5.814;2023-06-22T04:42:22;17.13;;;15.55;;
59504;SDS011;45321;53.200;5.814;2023-06-22T04:44:47;17.83;;;16.23;;
59504;SDS011;45321;53.200;5.814;2023-06-22T04:47:13;18.88;;;17.27;;
59504;SDS011;45321;53.200;5.814;2023-06-22T04:49:39;19.42;;;17.67;;
59504;SDS011;45321;53.200;5.814;2023-06-22T04:52:08;23.23;;;20.88;;
59504;SDS011;45321;53.200;5.814;2023-06-22T04:54:36;25.30;;;22.63;;
59504;SDS011;45321;53.200;5.814;2023-06-22T04:57:04;27.10;;;23.30;;
59504;SDS011;45321;53.200;5.814;2023-06-22T04:59:35;24.10;;;21.55;;
59504;SDS011;45321;53.200;5.814;2023-06-22T05:02:01;25.63;;;22.67;;
59504;SDS011;45321;53.200;5.814;2023-06-22T05:04:28;25.92;;;23.23;;
59504;SDS011;45321;53.200;5.814;2023-06-22T05:06:58;25.55;;;22.85;;
59504;SDS011;45321;53.200;5.814;2023-06-22T05:09:27;26.00;;;23.30;;
59504;SDS011;45321;53.200;5.814;2023-06-22T05:11:54;26.17;;;23.45;;
59504;SDS011;45321;53.200;5.814;2023-06-22T05:14:24;27.73;;;23.85;;
59504;SDS011;45321;53.200;5.814;2023-06-22T05:16:50;26.77;;;24.08;;
59504;SDS011;45321;53.200;5.814;2023-06-22T05:19:17;27.75;;;24.50;;
59504;SDS011;45321;53.200;5.814;2023-06-22T05:21:43;28.65;;;24.83;;
59504;SDS011;45321;53.200;5.814;2023-06-22T05:24:08;29.98;;;25.73;;
59504;SDS011;45321;53.200;5.814;2023-06-22T05:26:34;29.38;;;26.17;;
59504;SDS011;45321;53.200;5.814;2023-06-22T05:29:01;30.58;;;26.73;;
59504;SDS011;45321;53.200;5.814;2023-06-22T05:31:28;30.20;;;27.10;;
59504;SDS011;45321;53.200;5.814;2023-06-22T05:33:54;29.58;;;26.48;;
59504;SDS011;45321;53.200;5.814;2023-06-22T05:36:21;28.95;;;25.60;;
59504;SDS011;45321;53.200;5.814;2023-06-22T05:38:50;28.13;;;25.27;;
59504;SDS011;45321;53.200;5.814;2023-06-22T05:41:16;30.00;;;25.67;;
59504;SDS011;45321;53.200;5.814;2023-06-22T05:43:42;28.42;;;25.42;;
59504;SDS011;45321;53.200;5.814;2023-06-22T05:46:07;29.55;;;25.63;;
59504;SDS011;45321;53.200;5.814;2023-06-22T05:48:33;27.75;;;24.85;;
59504;SDS011;45321;53.200;5.814;2023-06-22T05:50:59;28.52;;;25.42;;
59504;SDS011;45321;53.200;5.814;2023-06-22T05:53:25;30.38;;;24.20;;
59504;SDS011;45321;53.200;5.814;2023-06-22T05:55:50;29.95;;;25.25;;
59504;SDS011;45321;53.200;5.814;2023-06-22T05:58:16;27.35;;;24.67;;
59504;SDS011;45321;53.200;5.814;2023-06-22T06:00:42;27.38;;;24.48;;
59504;SDS011;45321;53.200;5.814;2023-06-22T06:03:08;28.08;;;25.10;;
59504;SDS011;45321;53.200;5.814;2023-06-22T06:05:35;25.52;;;22.92;;
59504;SDS011;45321;53.200;5.814;2023-06-22T06:08:02;25.55;;;22.90;;
59504;SDS011;45321;53.200;5.814;2023-06-22T06:10:32;26.55;;;23.85;;
59504;SDS011;45321;53.200;5.814;2023-06-22T06:12:59;28.55;;;24.70;;
59504;SDS011;45321;53.200;5.814;2023-06-22T06:15:29;26.05;;;23.45;;
59504;SDS011;45321;53.200;5.814;2023-06-22T06:17:55;26.42;;;23.67;;
59504;SDS011;45321;53.200;5.814;2023-06-22T06:20:22;24.25;;;21.92;;
59504;SDS011;45321;53.200;5.814;2023-06-22T06:22:49;24.27;;;21.88;;
59504;SDS011;45321;53.200;5.814;2023-06-22T06:25:15;27.25;;;22.85;;
59504;SDS011;45321;53.200;5.814;2023-06-22T06:27:45;24.08;;;21.55;;
59504;SDS011;45321;53.200;5.814;2023-06-22T06:30:11;22.58;;;20.35;;
59504;SDS011;45321;53.200;5.814;2023-06-22T06:32:38;22.80;;;20.40;;
59504;SDS011;45321;53.200;5.814;2023-06-22T06:35:09;21.85;;;19.77;;
59504;SDS011;45321;53.200;5.814;2023-06-22T06:37:35;22.77;;;20.17;;
59504;SDS011;45321;53.200;5.814;2023-06-22T06:40:05;25.20;;;20.08;;
59504;SDS011;45321;53.200;5.814;2023-06-22T06:42:36;22.25;;;19.98;;
59504;SDS011;45321;53.200;5.814;2023-06-22T06:45:06;23.52;;;20.45;;
59504;SDS011;45321;53.200;5.814;2023-06-22T06:47:32;24.35;;;21.00;;
59504;SDS011;45321;53.200;5.814;2023-06-22T06:50:01;24.85;;;22.25;;
59504;SDS011;45321;53.200;5.814;2023-06-22T06:52:27;24.85;;;22.23;;
59504;SDS011;45321;53.200;5.814;2023-06-22T06:54:53;24.30;;;21.55;;
59504;SDS011;45321;53.200;5.814;2023-06-22T06:57:19;24.15;;;20.88;;
59504;SDS011;45321;53.200;5.814;2023-06-22T06:59:45;26.20;;;23.45;;
59504;SDS011;45321;53.200;5.814;2023-06-22T07:02:11;24.38;;;22.05;;
59504;SDS011;45321;53.200;5.814;2023-06-22T07:04:37;24.92;;;22.27;;
59504;SDS011;45321;53.200;5.814;2023-06-22T07:07:03;25.02;;;22.33;;
59504;SDS011;45321;53.200;5.814;2023-06-22T07:09:28;23.70;;;21.30;;
59504;SDS011;45321;53.200;5.814;2023-06-22T07:11:54;22.73;;;20.30;;
59504;SDS011;45321;53.200;5.814;2023-06-22T07:14:20;23.10;;;20.65;;
59504;SDS011;45321;53.200;5.814;2023-06-22T07:16:45;23.58;;;21.05;;
59504;SDS011;45321;53.200;5.814;2023-06-22T07:19:12;23.33;;;20.98;;
59504;SDS011;45321;53.200;5.814;2023-06-22T07:21:38;20.98;;;18.75;;
59504;SDS011;45321;53.200;5.814;2023-06-22T07:24:06;23.65;;;20.98;;
59504;SDS011;45321;53.200;5.814;2023-06-22T07:26:33;22.58;;;20.17;;
59504;SDS011;45321;53.200;5.814;2023-06-22T07:28:59;22.60;;;20.20;;
59504;SDS011;45321;53.200;5.814;2023-06-22T07:31:25;21.33;;;18.13;;
59504;SDS011;45321;53.200;5.814;2023-06-22T07:33:51;20.77;;;18.60;;
59504;SDS011;45321;53.200;5.814;2023-06-22T07:36:17;24.38;;;20.75;;
59504;SDS011;45321;53.200;5.814;2023-06-22T07:38:43;22.88;;;19.40;;
59504;SDS011;45321;53.200;5.814;2023-06-22T07:41:09;21.45;;;19.15;;
59504;SDS011;45321;53.200;5.814;2023-06-22T07:43:35;20.48;;;18.27;;
59504;SDS011;45321;53.200;5.814;2023-06-22T07:46:05;19.30;;;16.95;;
59504;SDS011;45321;53.200;5.814;2023-06-22T07:48:31;19.58;;;16.17;;
59504;SDS011;45321;53.200;5.814;2023-06-22T07:50:57;16.98;;;15.18;;
59504;SDS011;45321;53.200;5.814;2023-06-22T07:53:22;17.73;;;14.90;;
59504;SDS011;45321;53.200;5.814;2023-06-22T07:55:49;19.77;;;16.45;;
59504;SDS011;45321;53.200;5.814;2023-06-22T07:58:15;15.40;;;13.82;;
59504;SDS011;45321;53.200;5.814;2023-06-22T08:00:41;17.75;;;14.85;;
59504;SDS011;45321;53.200;5.814;2023-06-22T08:03:06;16.35;;;12.75;;
59504;SDS011;45321;53.200;5.814;2023-06-22T08:05:32;19.27;;;15.68;;
59504;SDS011;45321;53.200;5.814;2023-06-22T08:07:58;18.60;;;15.73;;
59504;SDS011;45321;53.200;5.814;2023-06-22T08:10:24;17.92;;;15.43;;
59504;SDS011;45321;53.200;5.814;2023-06-22T08:12:51;21.70;;;18.67;;
59504;SDS011;45321;53.200;5.814;2023-06-22T08:15:17;20.13;;;17.67;;
59504;SDS011;45321;53.200;5.814;2023-06-22T08:17:44;19.23;;;17.33;;
59504;SDS011;45321;53.200;5.814;2023-06-22T08:20:13;19.40;;;17.38;;
59504;SDS011;45321;53.200;5.814;2023-06-22T08:22:42;18.42;;;15.95;;
59504;SDS011;45321;53.200;5.814;2023-06-22T08:25:09;18.75;;;16.83;;
59504;SDS011;45321;53.200;5.814;2023-06-22T08:27:35;20.05;;;16.52;;
59504;SDS011;45321;53.200;5.814;2023-06-22T08:30:01;20.88;;;16.50;;
59504;SDS011;45321;53.200;5.814;2023-06-22T08:32:28;19.13;;;16.13;;
59504;SDS011;45321;53.200;5.814;2023-06-22T08:34:54;21.05;;;18.85;;
59504;SDS011;45321;53.200;5.814;2023-06-22T08:37:21;20.35;;;18.33;;
59504;SDS011;45321;53.200;5.814;2023-06-22T08:39:50;20.23;;;18.13;;
59504;SDS011;45321;53.200;5.814;2023-06-22T08:42:16;21.27;;;18.95;;
59504;SDS011;45321;53.200;5.814;2023-06-22T08:44:41;17.73;;;15.07;;
59504;SDS011;45321;53.200;5.814;2023-06-22T08:47:07;14.88;;;13.43;;
59504;SDS011;45321;53.200;5.814;2023-06-22T08:49:33;15.85;;;12.73;;
59504;SDS011;45321;53.200;5.814;2023-06-22T08:51:59;14.18;;;12.68;;
59504;SDS011;45321;53.200;5.814;2023-06-22T08:54:25;16.48;;;12.73;;
59504;SDS011;45321;53.200;5.814;2023-06-22T08:56:50;15.32;;;13.73;;
59504;SDS011;45321;53.200;5.814;2023-06-22T08:59:16;16.27;;;14.07;;
59504;SDS011;45321;53.200;5.814;2023-06-22T09:01:42;13.18;;;11.07;;
59504;SDS011;45321;53.200;5.814;2023-06-22T09:04:11;13.63;;;11.93;;
59504;SDS011;45321;53.200;5.814;2023-06-22T09:06:37;13.63;;;10.63;;
59504;SDS011;45321;53.200;5.814;2023-06-22T09:09:10;11.00;;;9.77;;
59504;SDS011;45321;53.200;5.814;2023-06-22T09:11:37;10.88;;;9.18;;
59504;SDS011;45321;53.200;5.814;2023-06-22T09:14:03;13.93;;;12.15;;
59504;SDS011;45321;53.200;5.814;2023-06-22T09:16:29;16.38;;;12.43;;
59504;SDS011;45321;53.200;5.814;2023-06-22T09:18:55;11.05;;;9.43;;
59504;SDS011;45321;53.200;5.814;2023-06-22T09:21:22;12.95;;;9.77;;
59504;SDS011;45321;53.200;5.814;2023-06-22T09:23:48;13.32;;;10.18;;
59504;SDS011;45321;53.200;5.814;2023-06-22T09:26:19;13.85;;;11.45;;
59504;SDS011;45321;53.200;5.814;2023-06-22T09:28:46;12.18;;;9.98;;
59504;SDS011;45321;53.200;5.814;2023-06-22T09:31:12;11.55;;;10.35;;
59504;SDS011;45321;53.200;5.814;2023-06-22T09:33:39;14.00;;;10.68;;
59504;SDS011;45321;53.200;5.814;2023-06-22T09:36:05;12.85;;;11.13;;
59504;SDS011;45321;53.200;5.814;2023-06-22T09:38:38;14.50;;;12.30;;
59504;SDS011;45321;53.200;5.814;2023-06-22T09:41:04;13.30;;;11.25;;
59504;SDS011;45321;53.200;5.814;2023-06-22T09:43:31;14.90;;;11.73;;
59504;SDS011;45321;53.200;5.814;2023-06-22T09:45:57;12.77;;;10.90;;
59504;SDS011;45321;53.200;5.814;2023-06-22T09:48:23;14.23;;;9.68;;
59504;SDS011;45321;53.200;5.814;2023-06-22T09:50:49;11.68;;;9.70;;
59504;SDS011;45321;53.200;5.814;2023-06-22T09:53:15;12.90;;;9.85;;
59504;SDS011;45321;53.200;5.814;2023-06-22T09:55:40;10.15;;;8.13;;
59504;SDS011;45321;53.200;5.814;2023-06-22T09:58:06;11.48;;;9.40;;
59504;SDS011;45321;53.200;5.814;2023-06-22T10:00:32;12.52;;;10.85;;
59504;SDS011;45321;53.200;5.814;2023-06-22T10:02:57;9.73;;;8.43;;
59504;SDS011;45321;53.200;5.814;2023-06-22T10:05:23;10.43;;;8.70;;
59504;SDS011;45321;53.200;5.814;2023-06-22T10:07:50;9.63;;;8.00;;
59504;SDS011;45321;53.200;5.814;2023-06-22T10:10:16;10.00;;;8.32;;
59504;SDS011;45321;53.200;5.814;2023-06-22T10:12:42;11.32;;;10.15;;
59504;SDS011;45321;53.200;5.814;2023-06-22T10:15:20;9.75;;;8.85;;
59504;SDS011;45321;53.200;5.814;2023-06-22T10:17:46;12.73;;;10.35;;
59504;SDS011;45321;53.200;5.814;2023-06-22T10:20:12;9.80;;;8.45;;
59504;SDS011;45321;53.200;5.814;2023-06-22T10:22:39;9.98;;;7.95;;
59504;SDS011;45321;53.200;5.814;2023-06-22T10:25:06;12.18;;;10.88;;
59504;SDS011;45321;53.200;5.814;2023-06-22T10:27:32;11.88;;;9.95;;
59504;SDS011;45321;53.200;5.814;2023-06-22T10:29:58;9.70;;;8.63;;
59504;SDS011;45321;53.200;5.814;2023-06-22T10:32:24;12.45;;;8.65;;
59504;SDS011;45321;53.200;5.814;2023-06-22T10:34:50;8.63;;;7.43;;
59504;SDS011;45321;53.200;5.814;2023-06-22T10:37:16;9.18;;;7.25;;
59504;SDS011;45321;53.200;5.814;2023-06-22T10:39:42;11.13;;;8.13;;
59504;SDS011;45321;53.200;5.814;2023-06-22T10:42:07;11.80;;;9.27;;
59504;SDS011;45321;53.200;5.814;2023-06-22T10:44:33;12.00;;;8.90;;
59504;SDS011;45321;53.200;5.814;2023-06-22T10:46:59;9.95;;;7.72;;
59504;SDS011;45321;53.200;5.814;2023-06-22T10:49:25;9.63;;;6.55;;
59504;SDS011;45321;53.200;5.814;2023-06-22T10:51:50;11.60;;;8.63;;
59504;SDS011;45321;53.200;5.814;2023-06-22T10:54:16;8.90;;;6.93;;
59504;SDS011;45321;53.200;5.814;2023-06-22T10:56:44;11.18;;;8.15;;
59504;SDS011;45321;53.200;5.814;2023-06-22T10:59:10;8.30;;;5.82;;
59504;SDS011;45321;53.200;5.814;2023-06-22T11:01:35;8.30;;;5.70;;
59504;SDS011;45321;53.200;5.814;2023-06-22T11:04:02;8.18;;;5.70;;
59504;SDS011;45321;53.200;5.814;2023-06-22T11:06:28;7.55;;;6.55;;
59504;SDS011;45321;53.200;5.814;2023-06-22T11:08:54;10.18;;;8.02;;
59504;SDS011;45321;53.200;5.814;2023-06-22T11:11:20;9.23;;;6.47;;
59504;SDS011;45321;53.200;5.814;2023-06-22T11:13:45;8.52;;;6.50;;
59504;SDS011;45321;53.200;5.814;2023-06-22T11:16:11;8.98;;;6.75;;
59504;SDS011;45321;53.200;5.814;2023-06-22T11:18:37;14.15;;;7.60;;
59504;SDS011;45321;53.200;5.814;2023-06-22T11:21:03;9.27;;;6.18;;
59504;SDS011;45321;53.200;5.814;2023-06-22T11:23:29;9.98;;;5.22;;
59504;SDS011;45321;53.200;5.814;2023-06-22T11:25:55;5.55;;;4.88;;
59504;SDS011;45321;53.200;5.814;2023-06-22T11:28:20;9.63;;;5.13;;
59504;SDS011;45321;53.200;5.814;2023-06-22T11:30:46;6.68;;;5.13;;
59504;SDS011;45321;53.200;5.814;2023-06-22T11:33:12;8.32;;;5.40;;
59504;SDS011;45321;53.200;5.814;2023-06-22T11:35:38;7.82;;;5.10;;
59504;SDS011;45321;53.200;5.814;2023-06-22T11:38:04;8.57;;;6.10;;
59504;SDS011;45321;53.200;5.814;2023-06-22T11:40:30;8.57;;;4.53;;
59504;SDS011;45321;53.200;5.814;2023-06-22T11:42:56;7.35;;;5.65;;
59504;SDS011;45321;53.200;5.814;2023-06-22T11:45:22;9.13;;;5.68;;
59504;SDS011;45321;53.200;5.814;2023-06-22T11:47:47;7.68;;;5.20;;
59504;SDS011;45321;53.200;5.814;2023-06-22T11:50:13;5.43;;;4.32;;
59504;SDS011;45321;53.200;5.814;2023-06-22T11:52:39;6.72;;;5.50;;
59504;SDS011;45321;53.200;5.814;2023-06-22T11:55:05;6.82;;;5.13;;
59504;SDS011;45321;53.200;5.814;2023-06-22T11:57:38;6.57;;;5.63;;
59504;SDS011;45321;53.200;5.814;2023-06-22T12:00:16;7.28;;;4.72;;
59504;SDS011;45321;53.200;5.814;2023-06-22T12:02:43;7.32;;;4.57;;
59504;SDS011;45321;53.200;5.814;2023-06-22T12:05:10;9.57;;;5.13;;
59504;SDS011;45321;53.200;5.814;2023-06-22T12:07:36;7.10;;;4.30;;
59504;SDS011;45321;53.200;5.814;2023-06-22T12:10:02;6.53;;;4.20;;
59504;SDS011;45321;53.200;5.814;2023-06-22T12:12:28;4.95;;;4.20;;
59504;SDS011;45321;53.200;5.814;2023-06-22T12:14:54;5.03;;;4.53;;
59504;SDS011;45321;53.200;5.814;2023-06-22T12:17:20;5.53;;;4.88;;
59504;SDS011;45321;53.200;5.814;2023-06-22T12:19:46;4.50;;;3.65;;
59504;SDS011;45321;53.200;5.814;2023-06-22T12:22:11;5.53;;;3.72;;
59504;SDS011;45321;53.200;5.814;2023-06-22T12:24:37;5.75;;;4.82;;
59504;SDS011;45321;53.200;5.814;2023-06-22T12:27:03;5.53;;;4.07;;
59504;SDS011;45321;53.200;5.814;2023-06-22T12:29:29;4.80;;;3.40;;
59504;SDS011;45321;53.200;5.814;2023-06-22T12:31:55;4.28;;;3.20;;
59504;SDS011;45321;53.200;5.814;2023-06-22T12:34:20;2.78;;;2.33;;
59504;SDS011;45321;53.200;5.814;2023-06-22T12:36:46;2.47;;;2.28;;
59504;SDS011;45321;53.200;5.814;2023-06-22T12:39:14;4.47;;;2.58;;
59504;SDS011;45321;53.200;5.814;2023-06-22T12:41:40;5.22;;;2.88;;
59504;SDS011;45321;53.200;5.814;2023-06-22T12:44:06;4.00;;;2.40;;
59504;SDS011;45321;53.200;5.814;2023-06-22T12:46:31;2.42;;;2.10;;
59504;SDS011;45321;53.200;5.814;2023-06-22T12:49:06;3.30;;;2.05;;
59504;SDS011;45321;53.200;5.814;2023-06-22T12:51:32;3.53;;;1.80;;
59504;SDS011;45321;53.200;5.814;2023-06-22T12:53:59;3.45;;;2.40;;
59504;SDS011;45321;53.200;5.814;2023-06-22T12:56:24;4.30;;;1.83;;
59504;SDS011;45321;53.200;5.814;2023-06-22T12:58:50;3.35;;;1.90;;
59504;SDS011;45321;53.200;5.814;2023-06-22T13:01:16;3.25;;;1.90;;
59504;SDS011;45321;53.200;5.814;2023-06-22T13:03:43;2.60;;;1.42;;
59504;SDS011;45321;53.200;5.814;2023-06-22T13:06:08;3.72;;;1.98;;
59504;SDS011;45321;53.200;5.814;2023-06-22T13:08:34;4.35;;;2.80;;
59504;SDS011;45321;53.200;5.814;2023-06-22T13:11:00;3.78;;;2.30;;
59504;SDS011;45321;53.200;5.814;2023-06-22T13:13:26;4.15;;;2.10;;
59504;SDS011;45321;53.200;5.814;2023-06-22T13:15:52;1.88;;;1.45;;
59504;SDS011;45321;53.200;5.814;2023-06-22T13:18:19;2.92;;;1.83;;
59504;SDS011;45321;53.200;5.814;2023-06-22T13:20:45;1.95;;;1.45;;
59504;SDS011;45321;53.200;5.814;2023-06-22T13:23:11;4.20;;;1.50;;
59504;SDS011;45321;53.200;5.814;2023-06-22T13:25:37;2.33;;;1.65;;
59504;SDS011;45321;53.200;5.814;2023-06-22T13:28:03;4.45;;;1.63;;
59504;SDS011;45321;53.200;5.814;2023-06-22T13:30:28;2.60;;;1.67;;
59504;SDS011;45321;53.200;5.814;2023-06-22T13:33:05;1.27;;;1.05;;
59504;SDS011;45321;53.200;5.814;2023-06-22T13:35:31;1.83;;;1.20;;
59504;SDS011;45321;53.200;5.814;2023-06-22T13:37:56;1.90;;;1.40;;
59504;SDS011;45321;53.200;5.814;2023-06-22T13:40:22;1.45;;;1.05;;
59504;SDS011;45321;53.200;5.814;2023-06-22T13:42:48;1.38;;;1.20;;
59504;SDS011;45321;53.200;5.814;2023-06-22T13:45:14;3.80;;;1.38;;
59504;SDS011;45321;53.200;5.814;2023-06-22T13:47:42;1.17;;;1.00;;
59504;SDS011;45321;53.200;5.814;2023-06-22T13:50:08;1.83;;;1.02;;
59504;SDS011;45321;53.200;5.814;2023-06-22T13:52:34;5.07;;;1.17;;
59504;SDS011;45321;53.200;5.814;2023-06-22T13:54:59;3.10;;;1.00;;
59504;SDS011;45321;53.200;5.814;2023-06-22T13:57:25;3.22;;;1.17;;
59504;SDS011;45321;53.200;5.814;2023-06-22T13:59:51;2.08;;;1.00;;
59504;SDS011;45321;53.200;5.814;2023-06-22T14:02:20;3.08;;;1.35;;
59504;SDS011;45321;53.200;5.814;2023-06-22T14:04:46;2.60;;;1.33;;
59504;SDS011;45321;53.200;5.814;2023-06-22T14:07:12;4.43;;;1.50;;
59504;SDS011;45321;53.200;5.814;2023-06-22T14:09:37;4.10;;;1.60;;
59504;SDS011;45321;53.200;5.814;2023-06-22T14:12:04;1.80;;;1.00;;
59504;SDS011;45321;53.200;5.814;2023-06-22T14:14:33;2.95;;;1.30;;
59504;SDS011;45321;53.200;5.814;2023-06-22T14:16:59;2.60;;;1.35;;
59504;SDS011;45321;53.200;5.814;2023-06-22T14:19:25;1.42;;;1.10;;
59504;SDS011;45321;53.200;5.814;2023-06-22T14:21:51;2.97;;;1.10;;
59504;SDS011;45321;53.200;5.814;2023-06-22T14:24:17;2.40;;;1.17;;
59504;SDS011;45321;53.200;5.814;2023-06-22T14:26:42;1.70;;;1.10;;
59504;SDS011;45321;53.200;5.814;2023-06-22T14:29:08;2.45;;;1.35;;
59504;SDS011;45321;53.200;5.814;2023-06-22T14:31:34;2.85;;;1.20;;
59504;SDS011;45321;53.200;5.814;2023-06-22T14:34:00;2.85;;;1.30;;
59504;SDS011;45321;53.200;5.814;2023-06-22T14:36:28;2.88;;;1.50;;